Time;durP1;ratioP1;P1;durP2;ratioP2;P2;SDS_P1;SDS_P2;PMS_P1;PMS_P2;Temp;Humidity;BMP_temperature;BMP_pressure;BME280_temperature;BME280_humidity;BME280_pressure;Samples;Min_cycle;Max_cycle;Signal;HPM_P1;HPM_P2
2022/09/22 00:01:15;;;;;;;16.17;15.03;;;;;;;;;;1752560;80;616548;-80
2022/09/22 00:03:44;;;;;;;17.80;16.40;;;;;;;;;;1759705;81;616638;-80
2022/09/22 00:06:14;;;;;;;17.67;16.37;;;;;;;;;;1751602;79;616867;-80
2022/09/22 00:08:43;;;;;;;17.63;16.33;;;;;;;;;;1759290;80;617732;-80
2022/09/22 00:11:15;;;;;;;18.83;17.33;;;;;;;;;;1751667;80;617766;-80
2022/09/22 00:13:44;;;;;;;19.27;17.67;;;;;;;;;;1759434;80;617743;-80
2022/09/22 00:16:13;;;;;;;18.77;17.37;;;;;;;;;;1751751;80;617772;-80
2022/09/22 00:18:41;;;;;;;18.57;17.07;;;;;;;;;;1759274;80;617610;-80
2022/09/22 00:21:11;;;;;;;17.13;15.83;;;;;;;;;;1751780;80;617664;-80
2022/09/22 00:23:40;;;;;;;18.73;17.30;;;;;;;;;;1759191;80;617736;-80
2022/09/22 00:26:09;;;;;;;16.63;15.43;;;;;;;;;;1751631;80;617775;-80
2022/09/22 00:28:38;;;;;;;18.30;16.90;;;;;;;;;;1759305;81;617880;-80
2022/09/22 00:31:07;;;;;;;17.73;16.43;;;;;;;;;;1751700;80;617896;-81
2022/09/22 00:33:36;;;;;;;18.77;17.37;;;;;;;;;;1759263;80;617767;-80
2022/09/22 00:36:05;;;;;;;18.57;17.17;;;;;;;;;;1751616;80;617895;-80
2022/09/22 00:38:33;;;;;;;18.53;17.20;;;;;;;;;;1759259;80;617953;-80
2022/09/22 00:41:03;;;;;;;18.90;17.50;;;;;;;;;;1754441;80;617768;-80
2022/09/22 00:43:35;;;;;;;18.47;17.03;;;;;;;;;;1776867;79;617722;-80
2022/09/22 00:46:07;;;;;;;17.63;16.33;;;;;;;;;;1751665;80;617825;-80
2022/09/22 00:48:38;;;;;;;17.50;16.30;;;;;;;;;;1754630;80;617869;-80
2022/09/22 00:51:08;;;;;;;16.10;15.00;;;;;;;;;;1751739;80;617800;-80
2022/09/22 00:53:36;;;;;;;17.40;16.10;;;;;;;;;;1759399;80;617714;-80
2022/09/22 00:56:06;;;;;;;17.20;15.87;;;;;;;;;;1751700;80;616617;-80
2022/09/22 00:58:36;;;;;;;17.87;16.50;;;;;;;;;;1759105;80;617820;-80
2022/09/22 01:01:06;;;;;;;18.83;17.43;;;;;;;;;;1751826;80;617816;-80
2022/09/22 01:03:34;;;;;;;17.73;16.40;;;;;;;;;;1759428;80;617767;-80
2022/09/22 01:06:05;;;;;;;16.93;15.73;;;;;;;;;;1751696;79;617856;-80
2022/09/22 01:08:34;;;;;;;18.17;16.77;;;;;;;;;;1759340;81;617685;-80
2022/09/22 01:11:03;;;;;;;18.30;16.90;;;;;;;;;;1751870;80;617728;-80
2022/09/22 01:13:34;;;;;;;19.10;17.60;;;;;;;;;;1759246;80;616733;-80
2022/09/22 01:16:24;;;;;;;19.00;17.63;;;;;;;;;;1751809;80;617795;-80
2022/09/22 01:18:57;;;;;;;18.07;16.73;;;;;;;;;;1721881;81;615833;-79
2022/09/22 01:21:33;;;;;;;15.27;14.17;;;;;;;;;;1751522;80;617808;-80
2022/09/22 01:24:23;;;;;;;17.30;15.90;;;;;;;;;;1730998;81;615786;-81
2022/09/22 01:27:11;;;;;;;17.93;16.47;;;;;;;;;;1745511;81;615961;-79
2022/09/22 01:29:47;;;;;;;15.27;14.17;;;;;;;;;;1744981;80;617819;-79
2022/09/22 01:32:18;;;;;;;16.77;15.47;;;;;;;;;;1737210;81;617723;-80
2022/09/22 01:34:47;;;;;;;17.37;16.17;;;;;;;;;;1759470;80;617880;-80
2022/09/22 01:37:17;;;;;;;17.80;16.53;;;;;;;;;;1751869;80;617723;-80
2022/09/22 01:39:47;;;;;;;17.60;16.30;;;;;;;;;;1759469;80;617877;-80
2022/09/22 01:42:17;;;;;;;18.03;16.73;;;;;;;;;;1751802;80;617667;-80
2022/09/22 01:44:48;;;;;;;17.47;16.17;;;;;;;;;;1759357;80;617799;-80
2022/09/22 01:47:18;;;;;;;17.83;16.50;;;;;;;;;;1722504;82;616883;-80
2022/09/22 01:49:48;;;;;;;17.97;16.57;;;;;;;;;;1759457;80;617696;-79
2022/09/22 01:52:18;;;;;;;19.23;17.77;;;;;;;;;;1751971;80;617668;-80
2022/09/22 01:54:49;;;;;;;20.07;18.37;;;;;;;;;;1759446;80;617740;-80
2022/09/22 01:57:19;;;;;;;19.17;17.67;;;;;;;;;;1722660;82;616596;-80
2022/09/22 01:59:49;;;;;;;19.43;17.70;;;;;;;;;;1759445;80;615876;-80
2022/09/22 02:02:23;;;;;;;19.43;17.93;;;;;;;;;;1751726;80;617716;-80
2022/09/22 02:04:54;;;;;;;20.00;18.30;;;;;;;;;;1759511;80;614775;-80
2022/09/22 02:07:24;;;;;;;20.00;18.40;;;;;;;;;;1751652;80;617795;-80
2022/09/22 02:09:54;;;;;;;19.87;18.30;;;;;;;;;;1759418;80;615854;-80
2022/09/22 02:12:22;;;;;;;20.43;18.77;;;;;;;;;;1751685;80;617832;-81
2022/09/22 02:14:51;;;;;;;19.33;17.63;;;;;;;;;;1759356;80;615832;-80
2022/09/22 02:17:19;;;;;;;16.33;15.23;;;;;;;;;;1751718;80;617955;-80
2022/09/22 02:19:49;;;;;;;18.03;16.63;;;;;;;;;;1759286;80;614752;-80
2022/09/22 02:22:17;;;;;;;17.40;16.07;;;;;;;;;;1751636;80;617920;-81
2022/09/22 02:24:46;;;;;;;19.77;18.27;;;;;;;;;;1759319;80;617846;-81
2022/09/22 02:27:19;;;;;;;19.60;17.90;;;;;;;;;;1751496;80;617693;-80
2022/09/22 02:29:47;;;;;;;19.50;18.10;;;;;;;;;;1759213;80;617655;-80
2022/09/22 02:32:16;;;;;;;17.67;16.17;;;;;;;;;;1751647;80;617685;-80
2022/09/22 02:34:46;;;;;;;17.73;16.40;;;;;;;;;;1759168;80;617666;-80
2022/09/22 02:37:17;;;;;;;17.70;16.30;;;;;;;;;;1751539;81;617854;-80
2022/09/22 02:39:47;;;;;;;18.50;17.00;;;;;;;;;;1759215;80;616822;-80
2022/09/22 02:42:18;;;;;;;18.77;17.27;;;;;;;;;;1722507;82;617738;-80
2022/09/22 02:44:49;;;;;;;20.30;18.43;;;;;;;;;;1759147;80;617775;-80
2022/09/22 02:47:19;;;;;;;18.80;17.23;;;;;;;;;;1751681;80;616573;-80
2022/09/22 02:49:49;;;;;;;19.43;17.73;;;;;;;;;;1759175;80;615930;-80
2022/09/22 02:52:19;;;;;;;19.00;17.40;;;;;;;;;;1751577;80;616929;-80
2022/09/22 02:54:47;;;;;;;18.97;17.47;;;;;;;;;;1759128;80;615802;-80
2022/09/22 02:57:16;;;;;;;19.00;17.40;;;;;;;;;;1751538;80;616658;-80
2022/09/22 02:59:44;;;;;;;20.20;18.50;;;;;;;;;;1759261;80;617812;-80
2022/09/22 03:02:12;;;;;;;20.20;18.40;;;;;;;;;;1751789;80;617674;-80
2022/09/22 03:04:43;;;;;;;19.50;17.83;;;;;;;;;;1759142;80;616676;-80
2022/09/22 03:07:11;;;;;;;21.70;19.90;;;;;;;;;;1751479;80;616586;-80
2022/09/22 03:09:40;;;;;;;21.87;19.97;;;;;;;;;;1759109;79;616778;-80
2022/09/22 03:12:08;;;;;;;22.47;20.57;;;;;;;;;;1751619;80;617773;-80
2022/09/22 03:14:36;;;;;;;21.07;19.17;;;;;;;;;;1759299;80;617795;-81
2022/09/22 03:17:05;;;;;;;21.13;19.33;;;;;;;;;;1751661;80;617703;-80
2022/09/22 03:19:33;;;;;;;22.40;20.60;;;;;;;;;;1759223;80;617775;-80
2022/09/22 03:22:02;;;;;;;22.60;20.73;;;;;;;;;;1754696;80;617719;-80
2022/09/22 03:24:31;;;;;;;21.83;19.93;;;;;;;;;;1776988;78;616605;-80
2022/09/22 03:26:59;;;;;;;23.27;21.47;;;;;;;;;;1759153;80;615038;-80
2022/09/22 03:29:27;;;;;;;22.60;20.60;;;;;;;;;;1760320;80;616608;-80
2022/09/22 03:31:56;;;;;;;23.83;21.73;;;;;;;;;;1759441;80;615984;-80
2022/09/22 03:34:24;;;;;;;20.40;18.70;;;;;;;;;;1751780;80;617700;-80
2022/09/22 03:36:52;;;;;;;21.97;20.17;;;;;;;;;;1759246;80;614885;-80
2022/09/22 03:39:21;;;;;;;21.30;19.60;;;;;;;;;;1751636;80;616672;-80
2022/09/22 03:41:49;;;;;;;22.30;20.40;;;;;;;;;;1759526;80;614865;-80
2022/09/22 03:44:17;;;;;;;21.87;19.97;;;;;;;;;;1751871;80;617796;-79
2022/09/22 03:46:48;;;;;;;23.37;21.37;;;;;;;;;;1760170;80;616608;-80
2022/09/22 03:49:16;;;;;;;23.63;21.73;;;;;;;;;;1751624;80;617693;-80
2022/09/22 03:51:45;;;;;;;25.03;22.83;;;;;;;;;;1759260;80;616835;-80
2022/09/22 03:54:13;;;;;;;25.50;23.30;;;;;;;;;;1751578;80;617835;-80
2022/09/22 03:56:42;;;;;;;25.13;22.90;;;;;;;;;;1759137;80;616604;-80
2022/09/22 03:59:10;;;;;;;28.07;25.47;;;;;;;;;;1751476;80;617803;-81
2022/09/22 04:01:38;;;;;;;30.83;28.00;;;;;;;;;;1731306;80;617739;-80
2022/09/22 04:04:07;;;;;;;30.20;27.40;;;;;;;;;;1716038;82;617703;-81
2022/09/22 04:06:38;;;;;;;34.13;30.83;;;;;;;;;;1677989;84;617747;-80
2022/09/22 04:09:06;;;;;;;34.37;31.03;;;;;;;;;;1686998;82;617975;-80
2022/09/22 04:11:35;;;;;;;34.47;31.23;;;;;;;;;;1694421;84;617905;-80
2022/09/22 04:14:03;;;;;;;34.67;31.27;;;;;;;;;;1658855;84;616764;-80
2022/09/22 04:16:31;;;;;;;33.67;30.37;;;;;;;;;;1694446;84;617932;-80
2022/09/22 04:19:03;;;;;;;35.90;32.13;;;;;;;;;;1694509;84;615906;-80
2022/09/22 04:21:30;;;;;;;36.93;33.07;;;;;;;;;;1694038;84;617719;-80
2022/09/22 04:23:58;;;;;;;34.63;31.23;;;;;;;;;;1694416;84;615820;-80
2022/09/22 04:26:27;;;;;;;33.80;30.47;;;;;;;;;;1694298;84;617732;-80
2022/09/22 04:28:55;;;;;;;33.67;30.27;;;;;;;;;;1694357;84;615962;-79
2022/09/22 04:31:23;;;;;;;30.40;27.60;;;;;;;;;;1686956;84;617777;-80
2022/09/22 04:33:52;;;;;;;30.53;27.53;;;;;;;;;;1694461;84;614709;-80
2022/09/22 04:36:20;;;;;;;30.13;27.30;;;;;;;;;;1687176;84;617737;-79
2022/09/22 04:38:49;;;;;;;31.07;28.07;;;;;;;;;;1694637;84;615799;-80
2022/09/22 04:41:17;;;;;;;32.23;29.13;;;;;;;;;;1687159;84;617957;-80
2022/09/22 04:43:45;;;;;;;32.33;29.23;;;;;;;;;;1694403;84;617935;-80
2022/09/22 04:46:14;;;;;;;32.30;29.30;;;;;;;;;;1687114;84;617205;-81
2022/09/22 04:48:42;;;;;;;34.43;30.97;;;;;;;;;;1694394;84;616777;-80
2022/09/22 04:51:10;;;;;;;34.90;31.33;;;;;;;;;;1687042;84;617752;-80
2022/09/22 04:53:39;;;;;;;38.33;33.40;;;;;;;;;;1694504;84;617695;-80
2022/09/22 04:56:07;;;;;;;35.70;32.17;;;;;;;;;;1687194;84;618006;-80
2022/09/22 04:58:35;;;;;;;35.87;32.40;;;;;;;;;;1694395;84;617742;-80
2022/09/22 05:01:04;;;;;;;38.90;35.03;;;;;;;;;;1687178;84;617767;-80
2022/09/22 05:03:36;;;;;;;38.30;34.43;;;;;;;;;;1694714;84;617983;-81
2022/09/22 05:06:03;;;;;;;39.23;35.20;;;;;;;;;;1686880;84;617776;-80
2022/09/22 05:08:31;;;;;;;40.67;36.80;;;;;;;;;;1694409;84;617883;-80
2022/09/22 05:11:00;;;;;;;41.70;37.77;;;;;;;;;;1694413;82;615962;-80
2022/09/22 05:13:29;;;;;;;41.53;37.23;;;;;;;;;;1694457;84;617801;-80
2022/09/22 05:15:58;;;;;;;41.37;37.17;;;;;;;;;;1694406;84;616005;-80
2022/09/22 05:18:26;;;;;;;42.33;38.13;;;;;;;;;;1687187;84;617735;-80
2022/09/22 05:20:54;;;;;;;40.70;36.60;;;;;;;;;;1694627;84;615908;-80
2022/09/22 05:23:23;;;;;;;40.93;36.93;;;;;;;;;;1687234;84;616586;-80
2022/09/22 05:25:51;;;;;;;39.97;35.97;;;;;;;;;;1694743;84;616037;-80
2022/09/22 05:28:21;;;;;;;41.13;36.93;;;;;;;;;;1684211;84;617744;-81
2022/09/22 05:30:50;;;;;;;43.67;39.07;;;;;;;;;;1693373;82;615899;-80
2022/09/22 05:33:18;;;;;;;42.63;38.37;;;;;;;;;;1692904;82;617904;-80
2022/09/22 05:35:47;;;;;;;40.50;36.60;;;;;;;;;;1695907;82;616803;-80
2022/09/22 05:38:15;;;;;;;39.67;35.87;;;;;;;;;;1685257;83;617879;-81
2022/09/22 05:40:46;;;;;;;37.90;34.20;;;;;;;;;;1686752;84;617771;-80
2022/09/22 05:43:14;;;;;;;37.30;33.73;;;;;;;;;;1679413;84;616721;-80
2022/09/22 05:45:43;;;;;;;34.37;31.17;;;;;;;;;;1686724;84;617664;-80
2022/09/22 05:48:11;;;;;;;32.97;29.80;;;;;;;;;;1679507;84;617711;-82
2022/09/22 05:50:40;;;;;;;30.93;28.13;;;;;;;;;;1686640;84;617804;-80
2022/09/22 05:53:09;;;;;;;32.80;29.73;;;;;;;;;;1679378;84;616667;-80
2022/09/22 05:55:38;;;;;;;33.77;30.77;;;;;;;;;;1686780;84;617740;-79
2022/09/22 05:58:08;;;;;;;33.77;30.57;;;;;;;;;;1679370;84;617755;-77
2022/09/22 06:00:36;;;;;;;33.03;29.83;;;;;;;;;;1686684;84;617934;-77
2022/09/22 06:03:04;;;;;;;34.87;31.57;;;;;;;;;;1679574;84;617786;-77
2022/09/22 06:05:33;;;;;;;34.43;31.23;;;;;;;;;;1686683;84;617676;-78
2022/09/22 06:08:02;;;;;;;34.80;31.70;;;;;;;;;;1686683;84;615927;-77
2022/09/22 06:10:32;;;;;;;34.17;30.93;;;;;;;;;;1686427;83;617734;-78
2022/09/22 06:13:01;;;;;;;34.80;31.50;;;;;;;;;;1686581;84;615881;-78
2022/09/22 06:15:32;;;;;;;31.23;28.23;;;;;;;;;;1686546;84;617824;-77
2022/09/22 06:18:00;;;;;;;33.63;30.53;;;;;;;;;;1686669;84;615915;-78
2022/09/22 06:20:29;;;;;;;34.43;31.00;;;;;;;;;;1686630;84;617759;-77
2022/09/22 06:22:58;;;;;;;34.43;31.13;;;;;;;;;;1686651;84;616055;-78
2022/09/22 06:25:28;;;;;;;34.40;31.20;;;;;;;;;;1677868;84;738854;-78
2022/09/22 06:28:01;;;;;;;32.97;30.07;;;;;;;;;;1686678;84;616048;-77
2022/09/22 06:30:30;;;;;;;33.27;30.27;;;;;;;;;;1686623;84;617841;-76
2022/09/22 06:32:58;;;;;;;32.83;29.93;;;;;;;;;;1686607;84;614785;-76
2022/09/22 06:35:30;;;;;;;31.03;28.33;;;;;;;;;;1679541;84;617770;-77
2022/09/22 06:37:57;;;;;;;31.00;28.20;;;;;;;;;;1686725;84;615846;-77
2022/09/22 06:40:26;;;;;;;30.70;27.80;;;;;;;;;;1679369;84;618025;-77
2022/09/22 06:42:57;;;;;;;31.30;28.47;;;;;;;;;;1686606;84;615914;-77
2022/09/22 06:45:25;;;;;;;31.57;28.63;;;;;;;;;;1679243;84;616664;-75
2022/09/22 06:47:57;;;;;;;33.13;30.13;;;;;;;;;;1686431;84;614821;-75
2022/09/22 06:50:28;;;;;;;31.50;28.77;;;;;;;;;;1679104;84;617746;-76
2022/09/22 06:52:58;;;;;;;33.03;29.93;;;;;;;;;;1686604;84;615848;-75
2022/09/22 06:55:27;;;;;;;32.27;29.33;;;;;;;;;;1679197;84;617838;-80
2022/09/22 06:57:57;;;;;;;32.97;29.97;;;;;;;;;;1686547;84;615891;-76
2022/09/22 07:00:30;;;;;;;32.97;30.00;;;;;;;;;;1679185;84;617739;-78
2022/09/22 07:03:01;;;;;;;31.53;28.63;;;;;;;;;;1686342;84;614937;-75
2022/09/22 07:05:29;;;;;;;32.50;29.33;;;;;;;;;;1686565;84;617776;-75
2022/09/22 07:07:58;;;;;;;31.77;28.77;;;;;;;;;;1686656;84;615823;-75
2022/09/22 07:10:26;;;;;;;30.67;27.57;;;;;;;;;;1679212;84;617876;-75
2022/09/22 07:12:59;;;;;;;29.37;26.67;;;;;;;;;;1686580;83;615867;-76
2022/09/22 07:15:25;;;;;;;29.47;26.80;;;;;;;;;;1678868;84;617896;-75
2022/09/22 07:17:54;;;;;;;28.83;26.33;;;;;;;;;;1686568;84;614678;-75
2022/09/22 07:20:22;;;;;;;27.67;25.13;;;;;;;;;;1679190;84;617948;-77
2022/09/22 07:22:54;;;;;;;27.60;25.10;;;;;;;;;;1686789;84;615912;-76
2022/09/22 07:25:22;;;;;;;25.90;23.60;;;;;;;;;;1679262;84;617760;-75
2022/09/22 07:27:50;;;;;;;27.27;24.90;;;;;;;;;;1686665;84;615812;-75
2022/09/22 07:30:21;;;;;;;26.47;24.27;;;;;;;;;;1679403;84;617834;-76
2022/09/22 07:32:49;;;;;;;25.53;23.27;;;;;;;;;;1686491;84;615813;-76
2022/09/22 07:35:17;;;;;;;24.77;22.67;;;;;;;;;;1679267;84;616593;-76
2022/09/22 07:37:45;;;;;;;26.00;23.67;;;;;;;;;;1686448;84;616646;-78
2022/09/22 07:40:14;;;;;;;22.70;20.90;;;;;;;;;;1679332;84;617725;-78
2022/09/22 07:42:42;;;;;;;17.97;16.73;;;;;;;;;;1686582;84;617758;-77
2022/09/22 07:45:13;;;;;;;17.07;15.83;;;;;;;;;;1679144;84;617734;-78
2022/09/22 07:50:30;;;;;;;15.03;14.03;;;;;;;;;;1686547;84;616642;-79
2022/09/22 07:52:58;;;;;;;16.67;15.43;;;;;;;;;;1686516;84;614952;-76
2022/09/22 07:55:26;;;;;;;15.70;14.70;;;;;;;;;;1679247;84;617884;-77
2022/09/22 07:57:56;;;;;;;14.73;13.80;;;;;;;;;;1686579;84;615763;-78
2022/09/22 08:00:25;;;;;;;13.37;12.53;;;;;;;;;;1679217;84;617970;-79
2022/09/22 08:02:56;;;;;;;14.80;13.70;;;;;;;;;;1686526;84;615895;-79
2022/09/22 08:05:25;;;;;;;13.93;13.03;;;;;;;;;;1679245;84;617773;-79
2022/09/22 08:07:57;;;;;;;14.83;13.83;;;;;;;;;;1686523;84;614862;-78
2022/09/22 08:10:25;;;;;;;15.17;14.17;;;;;;;;;;1679246;84;617708;-79
2022/09/22 08:12:56;;;;;;;14.07;13.17;;;;;;;;;;1686651;83;615959;-79
2022/09/22 08:15:25;;;;;;;14.73;13.80;;;;;;;;;;1679370;84;617833;-77
2022/09/22 08:17:56;;;;;;;13.93;13.03;;;;;;;;;;1686704;84;615627;-77
2022/09/22 08:20:28;;;;;;;14.63;13.83;;;;;;;;;;1679293;84;617957;-77
2022/09/22 08:22:59;;;;;;;13.53;12.73;;;;;;;;;;1660871;85;615936;-76
2022/09/22 08:25:27;;;;;;;13.13;12.43;;;;;;;;;;1662368;85;617788;-78
2022/09/22 08:27:55;;;;;;;13.60;12.80;;;;;;;;;;1686737;84;615783;-77
2022/09/22 08:30:24;;;;;;;14.17;13.27;;;;;;;;;;1679559;84;617737;-78
2022/09/22 08:32:52;;;;;;;14.13;13.13;;;;;;;;;;1686734;84;615940;-77
2022/09/22 08:35:21;;;;;;;12.80;12.10;;;;;;;;;;1679501;84;617882;-82
2022/09/22 08:37:50;;;;;;;12.00;11.30;;;;;;;;;;1686602;84;615805;-85
2022/09/22 08:40:22;;;;;;;12.80;11.90;;;;;;;;;;1679367;84;616630;-85
2022/09/22 08:42:53;;;;;;;13.07;12.27;;;;;;;;;;1686781;84;615554;-83
2022/09/22 08:45:22;;;;;;;12.80;12.07;;;;;;;;;;1655258;85;617735;-82
2022/09/22 08:53:26;;;;;;;13.00;12.20;;;;;;;;;;1679398;84;617653;-83
2022/09/22 08:55:57;;;;;;;13.80;12.90;;;;;;;;;;1689360;84;615944;-84
2022/09/22 08:58:28;;;;;;;13.70;12.87;;;;;;;;;;1660270;85;617788;-84
2022/09/22 09:00:58;;;;;;;13.93;13.10;;;;;;;;;;1686806;84;615854;-84
2022/09/22 09:03:28;;;;;;;13.27;12.47;;;;;;;;;;1686604;84;617680;-85
2022/09/22 09:06:03;;;;;;;13.87;13.07;;;;;;;;;;1686620;84;615795;-83
2022/09/22 09:08:40;;;;;;;13.03;12.33;;;;;;;;;;1686731;84;617699;-82
2022/09/22 09:11:11;;;;;;;13.33;12.43;;;;;;;;;;1679130;84;617918;-84
2022/09/22 09:13:42;;;;;;;13.83;13.03;;;;;;;;;;1686364;83;617752;-83
2022/09/22 09:16:17;;;;;;;16.03;14.93;;;;;;;;;;1678919;84;617643;-82
2022/09/22 09:18:47;;;;;;;15.90;15.00;;;;;;;;;;1685959;84;617684;-82
2022/09/22 09:21:16;;;;;;;15.73;14.73;;;;;;;;;;1678596;84;616652;-84
2022/09/22 09:23:45;;;;;;;16.27;15.07;;;;;;;;;;1686615;84;617851;-84
2022/09/22 09:26:14;;;;;;;16.17;15.07;;;;;;;;;;1679338;84;616657;-83
2022/09/22 09:28:44;;;;;;;15.27;14.20;;;;;;;;;;1686648;84;616681;-84
2022/09/22 09:31:15;;;;;;;15.90;14.80;;;;;;;;;;1679403;84;618036;-83
2022/09/22 09:33:45;;;;;;;15.17;14.17;;;;;;;;;;1686600;84;617704;-83
2022/09/22 09:36:15;;;;;;;14.73;13.83;;;;;;;;;;1679172;84;617759;-84
2022/09/22 09:38:45;;;;;;;14.33;13.43;;;;;;;;;;1686580;84;617765;-83
2022/09/22 09:41:14;;;;;;;14.40;13.43;;;;;;;;;;1679256;84;616837;-84
2022/09/22 09:43:44;;;;;;;14.13;13.13;;;;;;;;;;1686651;84;616722;-84
2022/09/22 09:46:15;;;;;;;14.63;13.73;;;;;;;;;;1679411;84;617627;-83
2022/09/22 09:48:45;;;;;;;14.47;13.47;;;;;;;;;;1686720;84;617815;-83
2022/09/22 09:51:14;;;;;;;12.93;12.10;;;;;;;;;;1679151;84;617781;-83
2022/09/22 09:53:43;;;;;;;14.63;13.70;;;;;;;;;;1686597;84;617790;-83
2022/09/22 09:56:19;;;;;;;13.00;12.30;;;;;;;;;;1679428;84;616775;-84
2022/09/22 10:01:43;;;;;;;12.37;11.67;;;;;;;;;;1686694;84;617844;-84
2022/09/22 10:04:31;;;;;;;11.33;10.67;;;;;;;;;;1679395;84;617620;-82
2022/09/22 10:07:14;;;;;;;10.63;10.13;;;;;;;;;;1686670;84;616003;-83
2022/09/22 10:09:42;;;;;;;11.30;10.70;;;;;;;;;;1686658;84;617750;-83
2022/09/22 10:12:22;;;;;;;13.10;12.40;;;;;;;;;;1679043;84;617693;-83
2022/09/22 10:14:51;;;;;;;12.40;11.70;;;;;;;;;;1686615;83;614753;-83
2022/09/22 10:17:23;;;;;;;11.93;11.17;;;;;;;;;;1679452;84;617724;-82
2022/09/22 10:19:51;;;;;;;11.97;11.10;;;;;;;;;;1686755;84;615928;-84
2022/09/22 10:22:26;;;;;;;11.00;10.40;;;;;;;;;;1679546;84;617656;-84
2022/09/22 10:24:56;;;;;;;10.43;9.83;;;;;;;;;;1686843;84;616191;-85
2022/09/22 10:27:26;;;;;;;9.43;8.83;;;;;;;;;;1679513;84;615646;-86
2022/09/22 10:30:36;;;;;;;9.67;9.10;;;;;;;;;;1686836;84;611808;-86
2022/09/22 10:36:24;;;;;;;9.17;8.77;;;;;;;18.55;100.00;100311.16;1909409;72;39488;-81
2022/09/22 10:41:56;;;;;;;9.33;8.80;;;;;;;18.56;100.00;100306.59;1800291;78;86069;-81
2022/09/22 10:47:32;;;;;;;8.80;8.40;;;;;;;18.57;100.00;100298.95;1842463;76;86571;-79
2022/09/22 10:50:49;;;;;;;9.07;8.67;;;;;;;18.57;100.00;100301.18;1775072;77;932572;-81
2022/09/22 10:53:37;;;;;;;9.08;8.68;;;;;;;18.61;100.00;100295.70;1756088;77;936598;-79
2022/09/22 10:56:16;;;;;;;8.70;8.30;;;;;;;18.49;100.00;100299.86;1763705;77;935536;-79
2022/09/22 10:59:21;;;;;;;10.07;9.50;;;;;;;18.43;100.00;100298.47;1735385;81;936513;-79
2022/09/22 11:12:14;;;;;;;9.77;9.30;;;;;;;18.50;100.00;100287.45;1949086;72;39559;-78
2022/09/22 11:13:58;;;;;;;9.30;8.90;;;;;;;18.49;100.00;100287.20;1765958;79;934473;-80
2022/09/22 11:16:35;;;;;;;9.97;9.57;;;;;;;18.02;100.00;100285.41;1715776;81;935400;-82
2022/09/22 11:22:50;;;;;;;9.93;9.43;;;;;;;18.71;100.00;100271.28;1932298;72;86202;-80
2022/09/22 11:25:31;;;;;;;9.83;9.33;;;;;;;18.61;100.00;100270.38;1850488;74;934513;-79
2022/09/22 11:31:06;;;;;;;10.20;9.63;;;;;;;18.76;100.00;100281.48;1905771;72;39404;-80
2022/09/22 11:34:01;;;;;;;10.77;9.97;;;;;;;18.79;100.00;100271.73;1769414;80;935389;-82
2022/09/22 11:39:44;;;;;;;10.10;9.53;;;;;;;18.61;100.00;100275.39;1924250;72;86111;-81
2022/09/22 11:48:32;;;;;;;8.60;8.30;;;;;;;19.57;100.00;100257.20;1939989;71;39465;-80
2022/09/22 11:51:19;;;;;;;10.73;10.03;;;;;;;19.52;100.00;100257.45;1872191;74;931360;-79
2022/09/22 11:54:35;;;;;;;9.80;9.40;;;;;;;19.29;100.00;100264.23;1901434;74;938508;-79
2022/09/22 11:57:09;;;;;;;10.37;9.67;;;;;;;19.64;100.00;100254.56;1799052;76;936470;-78
2022/09/22 11:59:42;;;;;;;9.87;9.30;;;;;;;19.67;100.00;100245.41;1829244;77;938733;-78
2022/09/22 12:02:17;;;;;;;10.03;9.43;;;;;;;19.48;100.00;100256.53;1818268;77;936365;-78
2022/09/22 12:04:52;;;;;;;9.40;8.87;;;;;;;19.54;100.00;100252.29;1807164;77;938590;-79
2022/09/22 12:07:26;;;;;;;10.70;10.20;;;;;;;19.61;100.00;100242.62;1784375;79;935569;-79
2022/09/22 12:10:00;;;;;;;9.87;9.27;;;;;;;19.51;100.00;100244.57;1816365;77;938534;-77
2022/09/22 12:12:32;;;;;;;9.23;8.73;;;;;;;19.64;100.00;100244.70;1803273;77;936479;-79
2022/09/22 12:15:06;;;;;;;9.43;8.80;;;;;;;20.30;100.00;100231.36;1815753;77;934548;-78
2022/09/22 12:17:41;;;;;;;9.20;8.50;;;;;;;20.44;100.00;100226.08;1812581;77;936405;-78
2022/09/22 12:23:40;;;;;;;9.50;8.90;;;;;;;20.54;100.00;100219.84;1921753;72;39460;-79
2022/09/22 12:29:23;;;;;;;8.70;8.10;;;;;;;20.66;100.00;100205.64;1941131;71;39486;-82
2022/09/22 12:31:56;;;;;;;9.03;8.63;;;;;;;20.37;100.00;100213.19;1818758;76;932847;-83
2022/09/22 12:34:29;;;;;;;8.53;8.10;;;;;;;20.11;100.00;100207.30;1787531;77;936734;-82
2022/09/22 12:37:01;;;;;;;8.37;7.80;;;;;;;20.42;100.00;100209.50;1802220;77;934450;-83
2022/09/22 12:39:33;;;;;;;9.13;8.63;;;;;;;20.27;100.00;100204.69;1773182;78;936662;-80
2022/09/22 12:45:11;;;;;;;8.40;7.80;;;;;;;20.22;100.00;100188.03;1948737;70;39514;-79
2022/09/22 12:50:44;;;;;;;9.40;9.00;;;;;;;20.25;100.00;100177.42;1791693;79;85620;-79
2022/09/22 12:56:48;;;;;;;9.50;8.90;;;;;;;20.34;100.00;100175.84;1913612;72;39694;-78
2022/09/22 13:02:55;;;;;;;9.10;8.57;;;;;;;20.91;100.00;100170.89;1814752;78;86548;-79
2022/09/22 13:05:42;;;;;;;8.97;8.47;;;;;;;20.89;100.00;100171.25;1743489;78;934617;-76
2022/09/22 13:08:37;;;;;;;9.60;8.98;;;;;;;20.87;100.00;100174.23;1734544;79;936647;-76
2022/09/22 13:11:09;;;;;;;8.40;8.00;;;;;;;20.33;100.00;100178.44;1741617;80;936671;-76
2022/09/22 13:13:44;;;;;;;8.53;7.93;;;;;;;20.56;100.00;100175.16;1724842;80;936688;-76
2022/09/22 13:19:36;;;;;;;9.10;8.40;;;;;;;20.62;100.00;100158.18;1879769;74;85674;-78
2022/09/22 13:25:25;;;;;;;8.10;7.70;;;;;;;20.69;100.00;100151.27;1984731;69;39611;-75
2022/09/22 13:28:15;;;;;;;8.27;7.73;;;;;;;20.89;100.00;100152.08;1921105;73;931420;-76
2022/09/22 13:30:47;;;;;;;7.60;7.20;;;;;;;20.93;100.00;100143.68;1924432;73;935478;-75
2022/09/22 13:33:23;;;;;;;7.83;7.43;;;;;;;21.01;100.00;100143.45;1913901;73;935521;-76
2022/09/22 13:35:58;;;;;;;8.05;7.55;;;;;;;21.78;100.00;100135.66;1927356;73;933700;-75
2022/09/22 13:38:29;;;;;;;8.48;7.90;;;;;;;21.36;100.00;100137.72;1898773;73;936570;-75
2022/09/22 13:40:59;;;;;;;8.33;7.83;;;;;;;21.43;100.00;100135.05;1878461;74;933531;-76
2022/09/22 13:43:30;;;;;;;7.92;7.45;;;;;;;;;;1886167;74;935667;-76
2022/09/22 13:49:00;;;;;;;8.20;7.63;;;;;;;21.11;100.00;100131.56;1881875;74;86246;-77
2022/09/22 13:51:28;;;;;;;8.20;7.60;;;;;;;;;;1819998;77;934592;-77
2022/09/22 13:53:59;;;;;;;8.07;7.53;;;;;;;20.56;100.00;100129.19;1805755;78;610601;-77
2022/09/22 13:56:30;;;;;;;7.57;7.17;;;;;;;20.42;100.00;100126.87;1811541;77;935463;-77
2022/09/22 13:59:02;;;;;;;8.20;7.70;;;;;;;20.62;100.00;100124.91;1759238;77;933540;-77
2022/09/22 14:01:32;;;;;;;7.78;7.28;;;;;;;20.88;100.00;100121.62;1774742;78;936613;-76
2022/09/22 14:04:03;;;;;;;7.73;7.03;;;;;;;21.41;100.00;100117.64;1778616;78;934604;-77
2022/09/22 14:06:35;;;;;;;7.83;7.33;;;;;;;21.04;100.00;100112.26;1778168;78;936729;-77
2022/09/22 14:09:06;;;;;;;8.13;7.60;;;;;;;20.98;100.00;100115.97;1792415;77;935648;-77
2022/09/22 14:11:38;;;;;;;7.62;7.20;;;;;;;21.29;100.00;100110.16;1791552;77;936785;-77
2022/09/22 14:17:22;;;;;;;7.72;7.30;;;;;;;22.09;100.00;100092.16;1936552;71;39451;-77
2022/09/22 14:19:56;;;;;;;7.20;6.80;;;;;;;21.88;100.00;100101.69;1830664;76;932223;-75
2022/09/22 14:22:28;;;;;;;7.00;6.50;;;;;;;21.60;100.00;100102.05;1777657;76;936575;-75
2022/09/22 14:25:00;;;;;;;8.28;7.70;;;;;;;21.30;100.00;100096.86;1841221;75;934766;-76
2022/09/22 14:27:35;;;;;;;8.60;8.00;;;;;;;21.42;100.00;100099.50;1821514;76;936589;-75
2022/09/22 14:30:08;;;;;;;7.90;7.50;;;;;;;20.78;100.00;100102.47;1810235;76;935735;-76
2022/09/22 14:32:40;;;;;;;8.27;7.87;;;;;;;20.60;100.00;100097.05;1829427;76;936649;-75
2022/09/22 14:38:18;;;;;;;7.70;7.30;;;;;;;20.81;100.00;100083.97;1945388;71;39528;-77
2022/09/22 14:40:55;;;;;;;8.00;7.57;;;;;;;20.88;100.00;100082.69;1825523;77;933278;-78
2022/09/22 14:43:29;;;;;;;8.07;7.57;;;;;;;20.82;100.00;100087.84;1812795;77;936472;-77
2022/09/22 14:49:23;;;;;;;8.70;8.13;;;;;;;21.55;100.00;100073.28;1867352;76;86623;-78
2022/09/22 14:51:53;;;;;;;8.40;7.83;;;;;;;21.49;100.00;100071.36;1782830;77;932413;-78
2022/09/22 14:54:23;;;;;;;8.60;8.20;;;;;;;20.92;100.00;100079.95;1782927;77;936754;-79
2022/09/22 14:56:53;;;;;;;9.37;8.50;;;;;;;20.57;100.00;100082.27;1782357;77;934612;-80
2022/09/22 15:05:24;;;;;;;8.45;7.97;;;;;;;20.76;100.00;100080.03;1944796;71;39445;-78
2022/09/22 15:07:55;;;;;;;8.88;8.38;;;;;;;20.48;100.00;100090.14;1861606;75;932544;-78
2022/09/22 15:10:28;;;;;;;9.30;8.70;;;;;;;20.12;100.00;100085.66;1843866;75;936534;-78